sensor_id;sensor_type;location;lat;lon;timestamp;temperature;humidity
46356;DHT22;32066;49.474;11.106;2023-03-23T00:01:38;17.20;65.60
46356;DHT22;32066;49.474;11.106;2023-03-23T00:04:10;17.20;65.60
46356;DHT22;32066;49.474;11.106;2023-03-23T00:06:39;17.20;65.80
46356;DHT22;32066;49.474;11.106;2023-03-23T00:09:09;17.20;65.60
46356;DHT22;32066;49.474;11.106;2023-03-23T00:11:38;17.20;65.70
46356;DHT22;32066;49.474;11.106;2023-03-23T00:14:08;17.20;65.80
46356;DHT22;32066;49.474;11.106;2023-03-23T00:16:39;17.20;65.80
46356;DHT22;32066;49.474;11.106;2023-03-23T00:19:13;17.20;65.90
46356;DHT22;32066;49.474;11.106;2023-03-23T00:21:45;17.20;66.00
46356;DHT22;32066;49.474;11.106;2023-03-23T00:24:15;17.10;66.00
46356;DHT22;32066;49.474;11.106;2023-03-23T00:26:45;17.10;65.90
46356;DHT22;32066;49.474;11.106;2023-03-23T00:29:19;17.10;66.00
46356;DHT22;32066;49.474;11.106;2023-03-23T00:31:50;17.10;66.00
46356;DHT22;32066;49.474;11.106;2023-03-23T00:34:22;17.10;66.20
46356;DHT22;32066;49.474;11.106;2023-03-23T00:36:58;17.10;66.40
46356;DHT22;32066;49.474;11.106;2023-03-23T00:39:28;17.10;66.30
46356;DHT22;32066;49.474;11.106;2023-03-23T00:41:56;17.10;66.40
46356;DHT22;32066;49.474;11.106;2023-03-23T00:44:26;17.10;66.50
46356;DHT22;32066;49.474;11.106;2023-03-23T00:46:56;17.00;67.00
46356;DHT22;32066;49.474;11.106;2023-03-23T00:49:28;17.00;66.50
46356;DHT22;32066;49.474;11.106;2023-03-23T00:52:01;17.00;66.50
46356;DHT22;32066;49.474;11.106;2023-03-23T00:54:30;17.00;66.70
46356;DHT22;32066;49.474;11.106;2023-03-23T00:56:59;17.00;66.70
46356;DHT22;32066;49.474;11.106;2023-03-23T00:59:27;16.90;67.00
46356;DHT22;32066;49.474;11.106;2023-03-23T01:01:56;16.70;67.30
46356;DHT22;32066;49.474;11.106;2023-03-23T01:04:27;16.70;67.40
46356;DHT22;32066;49.474;11.106;2023-03-23T01:06:58;16.70;67.60
46356;DHT22;32066;49.474;11.106;2023-03-23T01:09:27;16.60;67.40
46356;DHT22;32066;49.474;11.106;2023-03-23T01:11:55;16.50;68.10
46356;DHT22;32066;49.474;11.106;2023-03-23T01:14:24;16.50;67.90
46356;DHT22;32066;49.474;11.106;2023-03-23T01:16:53;16.60;67.70
46356;DHT22;32066;49.474;11.106;2023-03-23T01:19:22;16.50;67.70
46356;DHT22;32066;49.474;11.106;2023-03-23T01:21:53;16.50;67.70
46356;DHT22;32066;49.474;11.106;2023-03-23T01:24:22;16.40;67.70
46356;DHT22;32066;49.474;11.106;2023-03-23T01:26:50;16.50;67.80
46356;DHT22;32066;49.474;11.106;2023-03-23T01:29:19;16.50;67.70
46356;DHT22;32066;49.474;11.106;2023-03-23T01:31:49;16.60;67.30
46356;DHT22;32066;49.474;11.106;2023-03-23T01:34:17;16.50;67.10
46356;DHT22;32066;49.474;11.106;2023-03-23T01:36:46;16.50;67.50
46356;DHT22;32066;49.474;11.106;2023-03-23T01:39:18;16.60;67.30
46356;DHT22;32066;49.474;11.106;2023-03-23T01:41:46;16.50;67.10
46356;DHT22;32066;49.474;11.106;2023-03-23T01:47:21;16.60;66.90
46356;DHT22;32066;49.474;11.106;2023-03-23T01:49:52;16.60;66.40
46356;DHT22;32066;49.474;11.106;2023-03-23T01:52:24;16.50;66.70
46356;DHT22;32066;49.474;11.106;2023-03-23T01:55:02;16.40;67.20
46356;DHT22;32066;49.474;11.106;2023-03-23T01:57:31;16.50;66.70
46356;DHT22;32066;49.474;11.106;2023-03-23T02:00:04;16.50;67.40
46356;DHT22;32066;49.474;11.106;2023-03-23T02:02:41;16.50;67.10
46356;DHT22;32066;49.474;11.106;2023-03-23T02:05:13;16.50;66.80
46356;DHT22;32066;49.474;11.106;2023-03-23T02:07:44;16.40;66.90
46356;DHT22;32066;49.474;11.106;2023-03-23T02:10:16;16.50;66.80
46356;DHT22;32066;49.474;11.106;2023-03-23T02:12:45;16.50;66.70
46356;DHT22;32066;49.474;11.106;2023-03-23T02:15:14;16.60;66.40
46356;DHT22;32066;49.474;11.106;2023-03-23T02:17:46;16.60;66.40
46356;DHT22;32066;49.474;11.106;2023-03-23T02:20:28;16.60;66.40
46356;DHT22;32066;49.474;11.106;2023-03-23T02:23:34;16.60;66.20
46356;DHT22;32066;49.474;11.106;2023-03-23T02:26:33;16.60;66.20
46356;DHT22;32066;49.474;11.106;2023-03-23T02:29:15;16.60;66.40
46356;DHT22;32066;49.474;11.106;2023-03-23T02:32:11;16.70;66.20
46356;DHT22;32066;49.474;11.106;2023-03-23T02:34:45;16.60;66.00
46356;DHT22;32066;49.474;11.106;2023-03-23T02:37:22;16.70;65.80
46356;DHT22;32066;49.474;11.106;2023-03-23T02:39:57;16.60;66.20
46356;DHT22;32066;49.474;11.106;2023-03-23T02:42:30;16.60;66.10
46356;DHT22;32066;49.474;11.106;2023-03-23T02:45:04;16.60;66.00
46356;DHT22;32066;49.474;11.106;2023-03-23T02:47:36;16.60;65.90
46356;DHT22;32066;49.474;11.106;2023-03-23T02:50:12;16.60;66.10
46356;DHT22;32066;49.474;11.106;2023-03-23T02:52:44;16.60;65.90
46356;DHT22;32066;49.474;11.106;2023-03-23T02:55:14;16.60;66.40
46356;DHT22;32066;49.474;11.106;2023-03-23T02:57:43;16.60;65.90
46356;DHT22;32066;49.474;11.106;2023-03-23T03:00:16;16.60;66.00
46356;DHT22;32066;49.474;11.106;2023-03-23T03:02:47;16.60;66.10
46356;DHT22;32066;49.474;11.106;2023-03-23T03:05:26;16.60;65.70
46356;DHT22;32066;49.474;11.106;2023-03-23T03:08:13;16.60;65.40
46356;DHT22;32066;49.474;11.106;2023-03-23T03:10:49;16.60;66.10
46356;DHT22;32066;49.474;11.106;2023-03-23T03:13:25;16.60;65.80
46356;DHT22;32066;49.474;11.106;2023-03-23T03:16:07;16.60;65.80
46356;DHT22;32066;49.474;11.106;2023-03-23T03:18:37;16.60;65.70
46356;DHT22;32066;49.474;11.106;2023-03-23T03:21:12;16.60;66.00
46356;DHT22;32066;49.474;11.106;2023-03-23T03:23:45;16.50;65.50
46356;DHT22;32066;49.474;11.106;2023-03-23T03:26:17;16.60;65.50
46356;DHT22;32066;49.474;11.106;2023-03-23T03:28:55;16.60;65.30
46356;DHT22;32066;49.474;11.106;2023-03-23T03:31:27;16.60;65.30
46356;DHT22;32066;49.474;11.106;2023-03-23T03:33:57;16.50;65.50
46356;DHT22;32066;49.474;11.106;2023-03-23T03:36:31;16.60;65.50
46356;DHT22;32066;49.474;11.106;2023-03-23T03:39:05;16.70;65.00
46356;DHT22;32066;49.474;11.106;2023-03-23T03:41:36;16.60;65.30
46356;DHT22;32066;49.474;11.106;2023-03-23T03:44:06;16.50;65.40
46356;DHT22;32066;49.474;11.106;2023-03-23T03:46:35;16.40;65.60
46356;DHT22;32066;49.474;11.106;2023-03-23T03:49:07;16.50;65.80
46356;DHT22;32066;49.474;11.106;2023-03-23T03:51:41;16.60;65.60
46356;DHT22;32066;49.474;11.106;2023-03-23T03:54:19;16.40;66.10
46356;DHT22;32066;49.474;11.106;2023-03-23T03:56:48;16.50;65.90
46356;DHT22;32066;49.474;11.106;2023-03-23T03:59:49;16.50;65.50
46356;DHT22;32066;49.474;11.106;2023-03-23T04:02:27;16.50;65.30
46356;DHT22;32066;49.474;11.106;2023-03-23T04:04:55;16.60;65.40
46356;DHT22;32066;49.474;11.106;2023-03-23T04:07:27;16.60;65.30
46356;DHT22;32066;49.474;11.106;2023-03-23T04:09:57;16.60;65.20
46356;DHT22;32066;49.474;11.106;2023-03-23T04:12:25;16.70;65.30
46356;DHT22;32066;49.474;11.106;2023-03-23T04:14:56;16.70;65.40
46356;DHT22;32066;49.474;11.106;2023-03-23T04:17:30;16.60;65.50
46356;DHT22;32066;49.474;11.106;2023-03-23T04:20:00;16.60;65.30
46356;DHT22;32066;49.474;11.106;2023-03-23T04:22:35;16.60;65.50
46356;DHT22;32066;49.474;11.106;2023-03-23T04:25:05;16.50;65.40
46356;DHT22;32066;49.474;11.106;2023-03-23T04:27:36;16.60;65.40
46356;DHT22;32066;49.474;11.106;2023-03-23T04:30:10;16.50;66.10
46356;DHT22;32066;49.474;11.106;2023-03-23T04:32:49;16.50;66.00
46356;DHT22;32066;49.474;11.106;2023-03-23T04:35:23;16.40;66.10
46356;DHT22;32066;49.474;11.106;2023-03-23T04:38:08;16.40;66.50
46356;DHT22;32066;49.474;11.106;2023-03-23T04:40:39;16.30;66.30
46356;DHT22;32066;49.474;11.106;2023-03-23T04:43:18;16.40;66.40
46356;DHT22;32066;49.474;11.106;2023-03-23T04:46:20;16.40;66.40
46356;DHT22;32066;49.474;11.106;2023-03-23T04:48:51;16.40;66.40
46356;DHT22;32066;49.474;11.106;2023-03-23T04:51:24;16.40;66.50
46356;DHT22;32066;49.474;11.106;2023-03-23T04:53:56;16.40;66.90
46356;DHT22;32066;49.474;11.106;2023-03-23T04:56:27;16.40;66.80
46356;DHT22;32066;49.474;11.106;2023-03-23T04:58:58;16.40;66.30
46356;DHT22;32066;49.474;11.106;2023-03-23T05:01:33;16.40;66.50
46356;DHT22;32066;49.474;11.106;2023-03-23T05:04:15;16.40;66.90
46356;DHT22;32066;49.474;11.106;2023-03-23T05:06:55;16.40;66.60
46356;DHT22;32066;49.474;11.106;2023-03-23T05:09:31;16.40;66.70
46356;DHT22;32066;49.474;11.106;2023-03-23T05:12:03;16.40;66.80
46356;DHT22;32066;49.474;11.106;2023-03-23T05:14:34;16.40;66.70
46356;DHT22;32066;49.474;11.106;2023-03-23T05:17:09;16.40;66.60
46356;DHT22;32066;49.474;11.106;2023-03-23T05:19:38;16.30;67.20
46356;DHT22;32066;49.474;11.106;2023-03-23T05:22:21;16.30;66.90
46356;DHT22;32066;49.474;11.106;2023-03-23T05:24:53;16.40;67.40
46356;DHT22;32066;49.474;11.106;2023-03-23T05:27:22;16.40;67.30
46356;DHT22;32066;49.474;11.106;2023-03-23T05:30:00;16.30;67.30
46356;DHT22;32066;49.474;11.106;2023-03-23T05:32:30;16.30;67.30
46356;DHT22;32066;49.474;11.106;2023-03-23T05:35:12;16.30;67.40
46356;DHT22;32066;49.474;11.106;2023-03-23T05:37:41;16.40;67.50
46356;DHT22;32066;49.474;11.106;2023-03-23T05:40:14;16.30;67.40
46356;DHT22;32066;49.474;11.106;2023-03-23T05:42:48;16.30;67.00
46356;DHT22;32066;49.474;11.106;2023-03-23T05:45:27;16.30;67.10
46356;DHT22;32066;49.474;11.106;2023-03-23T05:47:56;16.30;67.30
46356;DHT22;32066;49.474;11.106;2023-03-23T05:50:27;16.30;67.30
46356;DHT22;32066;49.474;11.106;2023-03-23T05:52:57;16.30;67.10
46356;DHT22;32066;49.474;11.106;2023-03-23T05:55:28;16.30;67.40
46356;DHT22;32066;49.474;11.106;2023-03-23T05:58:05;16.30;67.40
46356;DHT22;32066;49.474;11.106;2023-03-23T06:00:36;16.30;67.20
46356;DHT22;32066;49.474;11.106;2023-03-23T06:03:16;16.30;67.50
46356;DHT22;32066;49.474;11.106;2023-03-23T06:05:58;16.30;67.60
46356;DHT22;32066;49.474;11.106;2023-03-23T06:08:36;16.30;67.40
46356;DHT22;32066;49.474;11.106;2023-03-23T06:11:08;16.30;67.40
46356;DHT22;32066;49.474;11.106;2023-03-23T06:13:43;16.40;67.20
46356;DHT22;32066;49.474;11.106;2023-03-23T06:16:12;16.40;67.40
46356;DHT22;32066;49.474;11.106;2023-03-23T06:18:52;16.50;67.00
46356;DHT22;32066;49.474;11.106;2023-03-23T06:21:27;16.40;67.80
46356;DHT22;32066;49.474;11.106;2023-03-23T06:24:05;16.50;67.60
46356;DHT22;32066;49.474;11.106;2023-03-23T06:26:38;16.50;67.90
46356;DHT22;32066;49.474;11.106;2023-03-23T06:29:14;16.50;68.00
46356;DHT22;32066;49.474;11.106;2023-03-23T06:31:55;16.50;67.90
46356;DHT22;32066;49.474;11.106;2023-03-23T06:34:26;16.50;67.60
46356;DHT22;32066;49.474;11.106;2023-03-23T06:37:21;16.50;68.10
46356;DHT22;32066;49.474;11.106;2023-03-23T06:40:02;16.40;68.20
46356;DHT22;32066;49.474;11.106;2023-03-23T06:42:39;16.40;68.20
46356;DHT22;32066;49.474;11.106;2023-03-23T06:45:27;16.50;68.10
46356;DHT22;32066;49.474;11.106;2023-03-23T06:48:15;16.50;67.90
46356;DHT22;32066;49.474;11.106;2023-03-23T06:50:44;16.50;67.80
46356;DHT22;32066;49.474;11.106;2023-03-23T06:53:16;16.50;68.20
46356;DHT22;32066;49.474;11.106;2023-03-23T06:55:46;16.60;68.00
46356;DHT22;32066;49.474;11.106;2023-03-23T06:58:18;16.70;68.20
46356;DHT22;32066;49.474;11.106;2023-03-23T07:00:48;16.70;68.20
46356;DHT22;32066;49.474;11.106;2023-03-23T07:03:16;16.70;68.30
46356;DHT22;32066;49.474;11.106;2023-03-23T07:05:46;16.80;68.20
46356;DHT22;32066;49.474;11.106;2023-03-23T07:08:17;16.80;67.80
46356;DHT22;32066;49.474;11.106;2023-03-23T07:10:51;17.00;82.00
46356;DHT22;32066;49.474;11.106;2023-03-23T07:13:27;17.40;81.70
46356;DHT22;32066;49.474;11.106;2023-03-23T07:15:59;17.60;77.90
46356;DHT22;32066;49.474;11.106;2023-03-23T07:18:29;17.80;72.90
46356;DHT22;32066;49.474;11.106;2023-03-23T07:20:59;17.50;68.10
46356;DHT22;32066;49.474;11.106;2023-03-23T07:23:31;17.70;73.90
46356;DHT22;32066;49.474;11.106;2023-03-23T07:26:03;17.80;74.60
46356;DHT22;32066;49.474;11.106;2023-03-23T07:28:50;17.70;71.10
46356;DHT22;32066;49.474;11.106;2023-03-23T07:31:24;17.80;73.10
46356;DHT22;32066;49.474;11.106;2023-03-23T07:33:54;18.00;72.20
46356;DHT22;32066;49.474;11.106;2023-03-23T07:36:30;17.70;68.40
46356;DHT22;32066;49.474;11.106;2023-03-23T07:39:03;17.90;72.80
46356;DHT22;32066;49.474;11.106;2023-03-23T07:41:33;17.90;70.10
46356;DHT22;32066;49.474;11.106;2023-03-23T07:44:16;17.90;67.40
46356;DHT22;32066;49.474;11.106;2023-03-23T07:46:45;17.90;67.80
46356;DHT22;32066;49.474;11.106;2023-03-23T07:49:15;17.90;68.60
46356;DHT22;32066;49.474;11.106;2023-03-23T07:51:53;18.10;70.70
46356;DHT22;32066;49.474;11.106;2023-03-23T07:54:22;18.10;69.00
46356;DHT22;32066;49.474;11.106;2023-03-23T07:57:00;17.70;65.40
46356;DHT22;32066;49.474;11.106;2023-03-23T07:59:35;17.30;66.90
46356;DHT22;32066;49.474;11.106;2023-03-23T08:02:04;16.90;67.50
46356;DHT22;32066;49.474;11.106;2023-03-23T08:04:47;16.70;69.10
46356;DHT22;32066;49.474;11.106;2023-03-23T08:07:22;16.70;70.40
46356;DHT22;32066;49.474;11.106;2023-03-23T08:10:03;16.60;70.90
46356;DHT22;32066;49.474;11.106;2023-03-23T08:12:55;16.50;71.50
46356;DHT22;32066;49.474;11.106;2023-03-23T08:15:53;16.50;72.40
46356;DHT22;32066;49.474;11.106;2023-03-23T08:18:32;16.40;72.20
46356;DHT22;32066;49.474;11.106;2023-03-23T08:21:16;16.30;73.10
46356;DHT22;32066;49.474;11.106;2023-03-23T08:24:07;16.20;72.70
46356;DHT22;32066;49.474;11.106;2023-03-23T08:26:55;16.20;73.00
46356;DHT22;32066;49.474;11.106;2023-03-23T08:29:24;16.10;73.20
46356;DHT22;32066;49.474;11.106;2023-03-23T08:32:17;16.20;73.20
46356;DHT22;32066;49.474;11.106;2023-03-23T08:35:05;16.10;73.80
46356;DHT22;32066;49.474;11.106;2023-03-23T08:38:00;16.10;74.40
46356;DHT22;32066;49.474;11.106;2023-03-23T08:40:47;16.00;74.00
46356;DHT22;32066;49.474;11.106;2023-03-23T08:43:42;16.00;74.40
46356;DHT22;32066;49.474;11.106;2023-03-23T08:46:34;16.10;74.90
46356;DHT22;32066;49.474;11.106;2023-03-23T08:49:22;16.30;75.70
46356;DHT22;32066;49.474;11.106;2023-03-23T08:52:12;16.10;75.40
46356;DHT22;32066;49.474;11.106;2023-03-23T08:54:54;16.10;75.40
46356;DHT22;32066;49.474;11.106;2023-03-23T08:57:38;16.10;76.20
46356;DHT22;32066;49.474;11.106;2023-03-23T09:00:21;16.10;76.40
46356;DHT22;32066;49.474;11.106;2023-03-23T09:03:02;16.20;76.30
46356;DHT22;32066;49.474;11.106;2023-03-23T09:05:48;16.20;76.40
46356;DHT22;32066;49.474;11.106;2023-03-23T09:08:23;16.10;75.80
46356;DHT22;32066;49.474;11.106;2023-03-23T09:10:52;16.10;76.40
46356;DHT22;32066;49.474;11.106;2023-03-23T09:13:21;16.10;76.50
46356;DHT22;32066;49.474;11.106;2023-03-23T09:15:50;16.10;76.20
46356;DHT22;32066;49.474;11.106;2023-03-23T09:18:19;16.10;76.50
46356;DHT22;32066;49.474;11.106;2023-03-23T09:20:53;16.10;77.00
46356;DHT22;32066;49.474;11.106;2023-03-23T09:23:22;16.20;76.80
46356;DHT22;32066;49.474;11.106;2023-03-23T09:25:52;16.30;76.60
46356;DHT22;32066;49.474;11.106;2023-03-23T09:28:21;16.30;76.90
46356;DHT22;32066;49.474;11.106;2023-03-23T09:30:50;16.30;76.60
46356;DHT22;32066;49.474;11.106;2023-03-23T09:33:19;16.10;76.20
46356;DHT22;32066;49.474;11.106;2023-03-23T09:35:47;16.20;76.80
46356;DHT22;32066;49.474;11.106;2023-03-23T09:38:19;16.20;76.50
46356;DHT22;32066;49.474;11.106;2023-03-23T09:40:50;16.30;76.40
46356;DHT22;32066;49.474;11.106;2023-03-23T09:43:34;16.40;75.90
46356;DHT22;32066;49.474;11.106;2023-03-23T09:46:15;16.40;75.60
46356;DHT22;32066;49.474;11.106;2023-03-23T09:48:49;16.30;74.70
46356;DHT22;32066;49.474;11.106;2023-03-23T09:51:33;16.20;74.20
46356;DHT22;32066;49.474;11.106;2023-03-23T09:54:12;16.20;75.00
46356;DHT22;32066;49.474;11.106;2023-03-23T09:56:42;16.20;73.60
46356;DHT22;32066;49.474;11.106;2023-03-23T09:59:18;16.40;86.70
46356;DHT22;32066;49.474;11.106;2023-03-23T10:01:51;16.80;79.80
46356;DHT22;32066;49.474;11.106;2023-03-23T10:04:32;17.00;76.10
46356;DHT22;32066;49.474;11.106;2023-03-23T10:07:10;17.20;74.10
46356;DHT22;32066;49.474;11.106;2023-03-23T10:09:43;16.80;72.70
46356;DHT22;32066;49.474;11.106;2023-03-23T10:12:21;16.80;72.80
46356;DHT22;32066;49.474;11.106;2023-03-23T10:14:59;16.70;72.80
46356;DHT22;32066;49.474;11.106;2023-03-23T10:17:33;16.70;72.90
46356;DHT22;32066;49.474;11.106;2023-03-23T10:23:02;16.50;72.90
46356;DHT22;32066;49.474;11.106;2023-03-23T10:25:38;16.60;73.50
46356;DHT22;32066;49.474;11.106;2023-03-23T10:28:11;16.30;74.10
46356;DHT22;32066;49.474;11.106;2023-03-23T10:30:42;16.20;74.10
46356;DHT22;32066;49.474;11.106;2023-03-23T10:33:16;16.20;74.80
46356;DHT22;32066;49.474;11.106;2023-03-23T10:35:52;16.30;74.90
46356;DHT22;32066;49.474;11.106;2023-03-23T10:38:23;16.30;75.30
46356;DHT22;32066;49.474;11.106;2023-03-23T10:41:00;16.30;74.70
46356;DHT22;32066;49.474;11.106;2023-03-23T10:43:31;16.30;74.90
46356;DHT22;32066;49.474;11.106;2023-03-23T10:46:02;16.30;75.30
46356;DHT22;32066;49.474;11.106;2023-03-23T10:48:37;16.10;75.90
46356;DHT22;32066;49.474;11.106;2023-03-23T10:51:10;16.20;76.20
46356;DHT22;32066;49.474;11.106;2023-03-23T10:53:44;16.20;76.50
46356;DHT22;32066;49.474;11.106;2023-03-23T10:56:28;16.30;76.40
46356;DHT22;32066;49.474;11.106;2023-03-23T10:58:57;16.30;76.70
46356;DHT22;32066;49.474;11.106;2023-03-23T11:01:30;16.30;77.00
46356;DHT22;32066;49.474;11.106;2023-03-23T11:04:00;16.30;77.40
46356;DHT22;32066;49.474;11.106;2023-03-23T11:06:32;16.30;77.70
46356;DHT22;32066;49.474;11.106;2023-03-23T11:09:11;16.30;77.80
46356;DHT22;32066;49.474;11.106;2023-03-23T11:11:49;16.30;78.20
46356;DHT22;32066;49.474;11.106;2023-03-23T11:14:24;16.20;78.50
46356;DHT22;32066;49.474;11.106;2023-03-23T11:16:55;16.20;78.80
46356;DHT22;32066;49.474;11.106;2023-03-23T11:19:27;16.20;79.30
46356;DHT22;32066;49.474;11.106;2023-03-23T11:22:00;16.20;79.60
46356;DHT22;32066;49.474;11.106;2023-03-23T11:24:33;16.10;79.70
46356;DHT22;32066;49.474;11.106;2023-03-23T11:27:06;16.10;80.10
46356;DHT22;32066;49.474;11.106;2023-03-23T11:29:41;16.10;80.30
46356;DHT22;32066;49.474;11.106;2023-03-23T11:32:14;16.10;80.50
46356;DHT22;32066;49.474;11.106;2023-03-23T11:34:45;16.10;80.60
46356;DHT22;32066;49.474;11.106;2023-03-23T11:37:27;16.00;81.00
46356;DHT22;32066;49.474;11.106;2023-03-23T11:39:59;16.10;81.30
46356;DHT22;32066;49.474;11.106;2023-03-23T11:42:43;16.10;81.10
46356;DHT22;32066;49.474;11.106;2023-03-23T11:45:19;16.20;81.20
46356;DHT22;32066;49.474;11.106;2023-03-23T11:47:59;16.00;81.70
46356;DHT22;32066;49.474;11.106;2023-03-23T11:50:32;16.00;81.80
46356;DHT22;32066;49.474;11.106;2023-03-23T11:53:12;16.10;81.80
46356;DHT22;32066;49.474;11.106;2023-03-23T11:55:55;16.20;82.40
46356;DHT22;32066;49.474;11.106;2023-03-23T11:58:27;16.20;81.80
46356;DHT22;32066;49.474;11.106;2023-03-23T12:01:03;16.20;81.90
46356;DHT22;32066;49.474;11.106;2023-03-23T12:03:51;16.00;82.60
46356;DHT22;32066;49.474;11.106;2023-03-23T12:06:30;16.00;82.80
46356;DHT22;32066;49.474;11.106;2023-03-23T12:09:09;16.00;82.90
46356;DHT22;32066;49.474;11.106;2023-03-23T12:11:51;16.10;83.20
46356;DHT22;32066;49.474;11.106;2023-03-23T12:14:32;16.00;83.50
46356;DHT22;32066;49.474;11.106;2023-03-23T12:17:12;16.00;83.70
46356;DHT22;32066;49.474;11.106;2023-03-23T12:19:50;16.20;83.40
46356;DHT22;32066;49.474;11.106;2023-03-23T12:22:37;16.20;83.50
46356;DHT22;32066;49.474;11.106;2023-03-23T12:25:19;16.20;83.50
46356;DHT22;32066;49.474;11.106;2023-03-23T12:27:53;16.30;83.20
46356;DHT22;32066;49.474;11.106;2023-03-23T12:30:32;16.40;83.10
46356;DHT22;32066;49.474;11.106;2023-03-23T12:33:18;16.40;82.90
46356;DHT22;32066;49.474;11.106;2023-03-23T12:35:57;16.50;82.60
46356;DHT22;32066;49.474;11.106;2023-03-23T12:38:44;16.30;83.30
46356;DHT22;32066;49.474;11.106;2023-03-23T12:41:19;16.30;83.40
46356;DHT22;32066;49.474;11.106;2023-03-23T12:43:51;16.20;83.40
46356;DHT22;32066;49.474;11.106;2023-03-23T12:46:44;16.10;83.30
46356;DHT22;32066;49.474;11.106;2023-03-23T12:49:21;16.00;84.40
46356;DHT22;32066;49.474;11.106;2023-03-23T12:52:00;16.00;84.10
46356;DHT22;32066;49.474;11.106;2023-03-23T12:54:35;16.20;83.80
46356;DHT22;32066;49.474;11.106;2023-03-23T12:57:08;16.20;83.50
46356;DHT22;32066;49.474;11.106;2023-03-23T12:59:42;16.30;83.10
46356;DHT22;32066;49.474;11.106;2023-03-23T13:02:20;16.30;83.20
46356;DHT22;32066;49.474;11.106;2023-03-23T13:04:52;16.40;82.90
46356;DHT22;32066;49.474;11.106;2023-03-23T13:07:28;16.50;82.50
46356;DHT22;32066;49.474;11.106;2023-03-23T13:10:03;16.40;82.60
46356;DHT22;32066;49.474;11.106;2023-03-23T13:12:32;16.30;82.80
46356;DHT22;32066;49.474;11.106;2023-03-23T13:15:15;16.30;82.70
46356;DHT22;32066;49.474;11.106;2023-03-23T13:17:54;16.40;82.50
46356;DHT22;32066;49.474;11.106;2023-03-23T13:20:43;16.50;82.10
46356;DHT22;32066;49.474;11.106;2023-03-23T13:23:16;16.50;81.80
46356;DHT22;32066;49.474;11.106;2023-03-23T13:25:54;16.60;81.90
46356;DHT22;32066;49.474;11.106;2023-03-23T13:28:26;16.70;81.70
46356;DHT22;32066;49.474;11.106;2023-03-23T13:31:00;16.60;81.70
46356;DHT22;32066;49.474;11.106;2023-03-23T13:33:33;16.60;81.40
46356;DHT22;32066;49.474;11.106;2023-03-23T13:36:10;16.70;81.30
46356;DHT22;32066;49.474;11.106;2023-03-23T13:38:45;16.70;81.20
46356;DHT22;32066;49.474;11.106;2023-03-23T13:41:18;16.50;80.80
46356;DHT22;32066;49.474;11.106;2023-03-23T13:43:47;16.40;81.00
46356;DHT22;32066;49.474;11.106;2023-03-23T13:46:28;16.50;81.40
46356;DHT22;32066;49.474;11.106;2023-03-23T13:49:19;16.50;81.50
46356;DHT22;32066;49.474;11.106;2023-03-23T13:51:57;16.70;81.40
46356;DHT22;32066;49.474;11.106;2023-03-23T13:54:32;16.70;81.20
46356;DHT22;32066;49.474;11.106;2023-03-23T13:57:23;16.70;84.00
46356;DHT22;32066;49.474;11.106;2023-03-23T13:59:57;16.90;81.30
46356;DHT22;32066;49.474;11.106;2023-03-23T14:02:35;16.90;80.50
46356;DHT22;32066;49.474;11.106;2023-03-23T14:05:32;16.90;80.20
46356;DHT22;32066;49.474;11.106;2023-03-23T14:08:09;16.90;80.70
46356;DHT22;32066;49.474;11.106;2023-03-23T14:10:41;16.80;80.80
46356;DHT22;32066;49.474;11.106;2023-03-23T14:13:16;16.90;81.00
46356;DHT22;32066;49.474;11.106;2023-03-23T14:15:55;16.90;81.00
46356;DHT22;32066;49.474;11.106;2023-03-23T14:18:27;16.90;80.70
46356;DHT22;32066;49.474;11.106;2023-03-23T14:21:00;17.00;81.20
46356;DHT22;32066;49.474;11.106;2023-03-23T14:23:31;17.00;80.80
46356;DHT22;32066;49.474;11.106;2023-03-23T14:26:02;16.80;81.70
46356;DHT22;32066;49.474;11.106;2023-03-23T14:28:39;16.80;81.90
46356;DHT22;32066;49.474;11.106;2023-03-23T14:31:17;16.70;81.90
46356;DHT22;32066;49.474;11.106;2023-03-23T14:33:46;16.70;82.20
46356;DHT22;32066;49.474;11.106;2023-03-23T14:36:23;16.60;83.20
46356;DHT22;32066;49.474;11.106;2023-03-23T14:39:02;16.70;82.30
46356;DHT22;32066;49.474;11.106;2023-03-23T14:41:32;16.70;82.40
46356;DHT22;32066;49.474;11.106;2023-03-23T14:44:04;16.80;82.10
46356;DHT22;32066;49.474;11.106;2023-03-23T14:46:34;16.80;81.40
46356;DHT22;32066;49.474;11.106;2023-03-23T14:49:04;16.90;81.40
46356;DHT22;32066;49.474;11.106;2023-03-23T14:51:36;16.90;80.90
46356;DHT22;32066;49.474;11.106;2023-03-23T14:54:08;16.80;81.00
46356;DHT22;32066;49.474;11.106;2023-03-23T14:56:37;16.70;81.30
46356;DHT22;32066;49.474;11.106;2023-03-23T14:59:06;16.60;81.70
46356;DHT22;32066;49.474;11.106;2023-03-23T15:01:36;16.60;81.90
46356;DHT22;32066;49.474;11.106;2023-03-23T15:04:09;16.40;82.30
46356;DHT22;32066;49.474;11.106;2023-03-23T15:06:43;16.30;82.80
46356;DHT22;32066;49.474;11.106;2023-03-23T15:09:15;16.40;82.90
46356;DHT22;32066;49.474;11.106;2023-03-23T15:11:52;16.50;83.00
46356;DHT22;32066;49.474;11.106;2023-03-23T15:14:24;16.40;83.20
46356;DHT22;32066;49.474;11.106;2023-03-23T15:16:55;16.50;83.00
46356;DHT22;32066;49.474;11.106;2023-03-23T15:19:26;16.40;83.50
46356;DHT22;32066;49.474;11.106;2023-03-23T15:22:07;16.30;83.80
46356;DHT22;32066;49.474;11.106;2023-03-23T15:24:41;16.40;83.30
46356;DHT22;32066;49.474;11.106;2023-03-23T15:27:13;16.50;83.20
46356;DHT22;32066;49.474;11.106;2023-03-23T15:29:49;16.50;83.30
46356;DHT22;32066;49.474;11.106;2023-03-23T15:32:23;16.40;83.50
46356;DHT22;32066;49.474;11.106;2023-03-23T15:34:53;16.40;83.70
46356;DHT22;32066;49.474;11.106;2023-03-23T15:37:27;16.20;84.30
46356;DHT22;32066;49.474;11.106;2023-03-23T15:39:56;16.10;84.60
46356;DHT22;32066;49.474;11.106;2023-03-23T15:42:27;16.10;84.90
46356;DHT22;32066;49.474;11.106;2023-03-23T15:45:22;16.10;84.50
46356;DHT22;32066;49.474;11.106;2023-03-23T15:47:52;16.10;84.50
46356;DHT22;32066;49.474;11.106;2023-03-23T15:50:33;16.10;84.70
46356;DHT22;32066;49.474;11.106;2023-03-23T15:53:20;16.20;84.60
46356;DHT22;32066;49.474;11.106;2023-03-23T15:55:50;16.20;84.50
46356;DHT22;32066;49.474;11.106;2023-03-23T15:58:19;16.10;84.90
46356;DHT22;32066;49.474;11.106;2023-03-23T16:00:49;16.10;85.00
46356;DHT22;32066;49.474;11.106;2023-03-23T16:03:22;16.20;85.00
46356;DHT22;32066;49.474;11.106;2023-03-23T16:05:52;16.20;85.00
46356;DHT22;32066;49.474;11.106;2023-03-23T16:08:25;16.30;87.80
46356;DHT22;32066;49.474;11.106;2023-03-23T16:10:53;16.40;86.70